Time;durP1;ratioP1;P1;durP2;ratioP2;P2;SDS_P1;SDS_P2;PMS_P1;PMS_P2;Temp;Humidity;BMP_temperature;BMP_pressure;BME280_temperature;BME280_humidity;BME280_pressure;Samples;Min_cycle;Max_cycle;Signal;HPM_P1;HPM_P2
2022/10/13 00:00:39;;;;;;;20.33;14.27;;;;;;;8.06;100.00;100911.69;5045192;28;20203;-76
2022/10/13 00:03:05;;;;;;;21.77;14.98;;;;;;;8.11;100.00;100920.47;5055476;28;20268;-78
2022/10/13 00:05:32;;;;;;;29.13;15.23;;;;;;;8.13;100.00;100923.13;5055063;28;20224;-77
2022/10/13 00:07:59;;;;;;;19.55;14.20;;;;;;;8.24;100.00;100915.66;5049518;28;20219;-76
2022/10/13 00:10:26;;;;;;;22.40;15.15;;;;;;;8.10;100.00;100931.28;5044066;28;20210;-78
2022/10/13 00:12:54;;;;;;;28.25;19.20;;;;;;;8.29;100.00;100923.59;5041765;28;20653;-77
2022/10/13 00:15:21;;;;;;;33.28;18.30;;;;;;;8.40;100.00;100920.63;5043245;28;20585;-77
2022/10/13 00:17:47;;;;;;;25.70;16.85;;;;;;;8.40;100.00;100926.91;5044004;28;20434;-77
2022/10/13 00:20:14;;;;;;;20.70;15.02;;;;;;;8.39;100.00;100925.13;5043840;28;20201;-77
2022/10/13 00:22:40;;;;;;;26.10;17.80;;;;;;;8.28;100.00;100920.03;5046096;28;20204;-77
2022/10/13 00:25:08;;;;;;;24.85;15.95;;;;;;;8.33;100.00;100927.97;5055947;28;20203;-77
2022/10/13 00:27:34;;;;;;;24.27;14.20;;;;;;;8.30;100.00;100914.63;5057947;28;20276;-78
2022/10/13 00:30:03;;;;;;;20.27;14.02;;;;;;;8.26;100.00;100926.38;5058509;28;20219;-79
2022/10/13 00:32:30;;;;;;;24.90;16.30;;;;;;;8.32;100.00;100920.81;5059165;28;20574;-78
2022/10/13 00:34:57;;;;;;;34.63;19.35;;;;;;;8.43;100.00;100924.13;5058193;28;20280;-76
2022/10/13 00:37:24;;;;;;;30.27;18.25;;;;;;;8.58;100.00;100924.63;5054838;28;20232;-76
2022/10/13 00:39:50;;;;;;;30.23;19.05;;;;;;;8.66;100.00;100927.94;5055368;28;20659;-78
2022/10/13 00:42:22;;;;;;;29.70;18.70;;;;;;;8.79;100.00;100926.66;5056359;28;20241;-78
2022/10/13 00:45:07;;;;;;;27.80;17.83;;;;;;;8.92;100.00;100921.81;5057656;28;20178;-77
2022/10/13 00:47:38;;;;;;;23.17;16.02;;;;;;;8.98;100.00;100921.63;5057447;28;20215;-79
2022/10/13 00:50:09;;;;;;;28.88;17.10;;;;;;;8.94;100.00;100919.97;5057692;28;20198;-78
2022/10/13 00:52:38;;;;;;;23.85;16.80;;;;;;;8.90;100.00;100919.16;5058432;28;20171;-79
2022/10/13 00:55:07;;;;;;;20.48;15.32;;;;;;;8.84;100.00;100924.75;5058759;28;20204;-78
2022/10/13 00:57:35;;;;;;;22.67;15.48;;;;;;;8.88;100.00;100925.50;5047553;28;20318;-78
2022/10/13 01:00:04;;;;;;;22.88;15.38;;;;;;;8.80;100.00;100917.69;5040646;28;20224;-78
2022/10/13 01:02:36;;;;;;;24.95;15.15;;;;;;;8.72;100.00;100920.59;5020399;28;20247;-76
2022/10/13 01:05:05;;;;;;;22.77;15.32;;;;;;;8.61;100.00;100916.47;5025638;28;20267;-77
2022/10/13 01:07:33;;;;;;;20.63;14.10;;;;;;;8.69;100.00;100922.50;5035330;28;20315;-77
2022/10/13 01:10:01;;;;;;;23.48;13.63;;;;;;;8.64;100.00;100917.28;5031051;28;20578;-75
2022/10/13 01:12:43;;;;;;;20.60;14.88;;;;;;;8.66;100.00;100914.53;5034454;28;20721;-77
2022/10/13 01:15:15;;;;;;;25.73;15.20;;;;;;;8.59;100.00;100908.44;5035139;28;20206;-77
2022/10/13 01:17:50;;;;;;;22.05;14.90;;;;;;;8.62;100.00;100920.94;5035888;28;20221;-79
2022/10/13 01:20:42;;;;;;;20.48;14.77;;;;;;;8.54;100.00;100916.63;5034725;28;20206;-77
2022/10/13 01:23:30;;;;;;;21.30;14.57;;;;;;;8.59;100.00;100913.81;5035379;28;20682;-77
2022/10/13 01:26:24;;;;;;;21.80;14.73;;;;;;;8.55;100.00;100912.16;5035353;28;20194;-77
2022/10/13 01:29:09;;;;;;;21.30;14.50;;;;;;;8.62;100.00;100916.44;5018206;28;20189;-78
2022/10/13 01:31:43;;;;;;;20.30;14.23;;;;;;;8.65;100.00;100912.78;5021703;28;20224;-77
2022/10/13 01:34:17;;;;;;;17.88;14.00;;;;;;;8.64;100.00;100906.53;5034596;28;20251;-77
2022/10/13 01:36:50;;;;;;;20.77;14.23;;;;;;;8.59;100.00;100900.38;5035199;28;20270;-77
2022/10/13 01:39:25;;;;;;;17.55;12.23;;;;;;;8.59;100.00;100902.19;5035124;28;20229;-78
2022/10/13 01:41:56;;;;;;;15.95;12.23;;;;;;;8.56;100.00;100897.81;5035389;28;20181;-78
2022/10/13 01:44:29;;;;;;;16.50;12.50;;;;;;;8.58;100.00;100897.78;5033200;28;20196;-76
2022/10/13 01:46:59;;;;;;;20.35;13.20;;;;;;;8.56;100.00;100904.06;5035009;28;20227;-80
2022/10/13 01:49:28;;;;;;;16.90;12.15;;;;;;;8.50;100.00;100896.19;5036174;28;20202;-77
2022/10/13 01:52:00;;;;;;;22.38;13.30;;;;;;;8.55;100.00;100896.94;5035221;28;20206;-77
2022/10/13 01:54:26;;;;;;;16.10;12.23;;;;;;;8.52;100.00;100891.66;5036057;28;20199;-78
2022/10/13 01:56:53;;;;;;;16.65;11.73;;;;;;;8.52;100.00;100890.75;5035624;28;20241;-77
2022/10/13 01:59:20;;;;;;;18.58;13.05;;;;;;;8.47;100.00;100892.72;5034356;28;20763;-77
2022/10/13 02:01:57;;;;;;;16.20;12.68;;;;;;;8.51;100.00;100879.16;5035054;28;20204;-77
2022/10/13 02:04:37;;;;;;;18.70;13.32;;;;;;;8.55;100.00;100888.00;5039727;28;20203;-76
2022/10/13 02:07:12;;;;;;;21.50;13.40;;;;;;;8.60;100.00;100887.88;5038815;28;20219;-77
2022/10/13 02:09:48;;;;;;;20.85;12.80;;;;;;;8.55;100.00;100885.31;5039299;28;20190;-78
2022/10/13 02:12:22;;;;;;;17.30;13.02;;;;;;;8.50;100.00;100887.25;5036955;28;20193;-79
2022/10/13 02:14:50;;;;;;;19.00;13.13;;;;;;;8.44;100.00;100880.25;5036017;28;20227;-78
2022/10/13 02:17:17;;;;;;;27.42;14.05;;;;;;;8.47;100.00;100881.97;5036465;28;20231;-77
2022/10/13 02:19:47;;;;;;;17.92;13.18;;;;;;;8.53;100.00;100881.81;5037233;28;20244;-77
2022/10/13 02:22:15;;;;;;;17.90;13.52;;;;;;;8.52;100.00;100870.19;5037717;28;20224;-78
2022/10/13 02:24:42;;;;;;;16.10;12.35;;;;;;;8.46;100.00;100870.34;5042031;28;20202;-78
2022/10/13 02:27:09;;;;;;;17.17;13.10;;;;;;;8.46;100.00;100870.34;5034766;28;20230;-77
2022/10/13 02:29:49;;;;;;;19.13;12.98;;;;;;;8.53;100.00;100861.19;5033653;28;20208;-78
2022/10/13 02:32:15;;;;;;;14.75;11.60;;;;;;;8.54;100.00;100856.69;5034391;28;20191;-78
2022/10/13 02:34:42;;;;;;;19.77;12.18;;;;;;;8.56;100.00;100857.53;5033798;28;20204;-77
2022/10/13 02:37:10;;;;;;;18.77;13.60;;;;;;;8.53;100.00;100853.13;5034301;28;20243;-77
2022/10/13 02:39:37;;;;;;;18.48;13.27;;;;;;;8.55;100.00;100861.16;5032810;28;20412;-78
2022/10/13 02:42:04;;;;;;;18.50;12.75;;;;;;;8.51;100.00;100871.09;5033590;28;20205;-78
2022/10/13 02:44:30;;;;;;;17.60;13.35;;;;;;;8.49;100.00;100870.25;5033181;28;20211;-78
2022/10/13 02:46:57;;;;;;;17.65;13.27;;;;;;;8.51;100.00;100868.41;5033940;28;20323;-78
2022/10/13 02:49:23;;;;;;;20.48;14.10;;;;;;;8.46;100.00;100864.13;5032777;28;20194;-77
2022/10/13 02:51:50;;;;;;;19.63;13.50;;;;;;;8.43;100.00;100865.06;5034672;28;20587;-77
2022/10/13 02:54:18;;;;;;;17.75;13.45;;;;;;;8.47;100.00;100860.50;5034737;28;20204;-77
2022/10/13 02:56:45;;;;;;;26.52;14.27;;;;;;;8.43;100.00;100854.31;5034929;28;20234;-77
2022/10/13 02:59:12;;;;;;;21.17;13.55;;;;;;;8.50;100.00;100865.75;5034247;28;20233;-80
2022/10/13 03:01:40;;;;;;;23.85;13.90;;;;;;;8.53;100.00;100866.56;5035693;28;20204;-77
2022/10/13 03:04:06;;;;;;;19.25;13.20;;;;;;;8.52;100.00;100866.59;5040548;28;20208;-78
2022/10/13 03:06:33;;;;;;;26.70;14.57;;;;;;;8.42;100.00;100863.31;5046498;28;20232;-76
2022/10/13 03:09:00;;;;;;;20.73;14.40;;;;;;;8.39;100.00;100855.34;5043734;28;20206;-79
2022/10/13 03:11:28;;;;;;;26.30;15.05;;;;;;;8.46;100.00;100859.63;5043796;28;20224;-79
2022/10/13 03:13:54;;;;;;;20.98;13.18;;;;;;;8.44;100.00;100861.47;5041039;28;20203;-77
2022/10/13 03:16:21;;;;;;;22.23;14.82;;;;;;;8.50;100.00;100860.41;5033989;28;20225;-77
2022/10/13 03:18:47;;;;;;;24.00;14.38;;;;;;;8.46;100.00;100856.94;5032993;28;20199;-77
2022/10/13 03:21:14;;;;;;;22.83;13.50;;;;;;;8.45;100.00;100856.97;5032757;28;20203;-78
2022/10/13 03:23:41;;;;;;;30.23;14.75;;;;;;;8.45;100.00;100857.84;5034072;28;20200;-77
2022/10/13 03:26:07;;;;;;;23.60;16.00;;;;;;;8.50;100.00;100866.66;5033926;28;20239;-77
2022/10/13 03:28:35;;;;;;;23.92;14.63;;;;;;;8.47;100.00;100861.38;5033561;28;20213;-79
2022/10/13 03:31:03;;;;;;;25.98;15.65;;;;;;;8.44;100.00;100855.22;5036027;28;20233;-77
2022/10/13 03:33:29;;;;;;;20.20;13.85;;;;;;;8.46;100.00;100851.56;5037611;28;20201;-77
2022/10/13 03:35:58;;;;;;;31.40;20.67;;;;;;;8.60;100.00;100844.91;5036037;28;20316;-76
2022/10/13 03:38:24;;;;;;;31.42;20.58;;;;;;;8.52;100.00;100858.53;5016778;28;20196;-76
2022/10/13 03:40:51;;;;;;;32.92;22.33;;;;;;;8.61;100.00;100855.59;5017374;28;20222;-76
2022/10/13 03:43:18;;;;;;;34.72;23.55;;;;;;;8.44;100.00;100853.41;5018290;28;20697;-78
2022/10/13 03:45:54;;;;;;;40.05;27.52;;;;;;;8.52;100.00;100858.53;5019779;28;20676;-78
2022/10/13 03:48:21;;;;;;;52.78;36.47;;;;;;;8.46;100.00;100848.00;5018871;28;20186;-76
2022/10/13 03:50:47;;;;;;;94.15;55.90;;;;;;;8.63;100.00;100843.00;5036370;28;20196;-78
2022/10/13 03:53:14;;;;;;;68.88;44.22;;;;;;;8.77;100.00;100856.91;5040959;28;20211;-77
2022/10/13 03:55:40;;;;;;;57.30;36.85;;;;;;;8.92;100.00;100858.22;5045046;28;20212;-76
2022/10/13 03:58:07;;;;;;;70.88;46.53;;;;;;;8.93;100.00;100862.69;5050145;28;20300;-77
2022/10/13 04:00:35;;;;;;;55.40;34.55;;;;;;;8.93;100.00;100865.38;5053068;28;20229;-77
2022/10/13 04:03:03;;;;;;;86.85;53.88;;;;;;;9.06;100.00;100873.91;5049252;28;20215;-76
2022/10/13 04:05:29;;;;;;;72.13;46.13;;;;;;;9.15;100.00;100870.91;5036165;28;20207;-77
2022/10/13 04:07:56;;;;;;;48.60;29.17;;;;;;;9.21;100.00;100864.47;5036089;28;20223;-78
2022/10/13 04:10:22;;;;;;;48.53;22.73;;;;;;;9.21;100.00;100877.03;5038653;28;20226;-77
2022/10/13 04:12:49;;;;;;;97.80;57.63;;;;;;;9.30;100.00;100866.88;5040677;28;20207;-76
2022/10/13 04:15:16;;;;;;;77.07;40.33;;;;;;;9.43;100.00;100864.66;5037379;28;20205;-76
2022/10/13 04:17:42;;;;;;;73.88;35.13;;;;;;;9.37;100.00;100860.34;5041623;28;20260;-77
2022/10/13 04:20:11;;;;;;;90.32;53.50;;;;;;;9.48;100.00;100861.81;5040968;28;20761;-76
2022/10/13 04:22:37;;;;;;;79.00;47.15;;;;;;;9.59;100.00;100873.09;5040575;28;20204;-77
2022/10/13 04:25:05;;;;;;;108.70;64.63;;;;;;;9.65;100.00;100875.56;5037000;28;20194;-78
2022/10/13 04:27:32;;;;;;;96.50;54.53;;;;;;;9.42;100.00;100873.66;5020525;28;20630;-77
2022/10/13 04:29:58;;;;;;;69.03;40.78;;;;;;;9.42;100.00;100878.16;5022742;28;20205;-75
2022/10/13 04:32:25;;;;;;;90.63;52.45;;;;;;;9.51;100.00;100876.03;5022500;28;20250;-75
2022/10/13 04:34:52;;;;;;;83.88;48.58;;;;;;;9.49;100.00;100879.69;5021595;28;20208;-78
2022/10/13 04:37:19;;;;;;;46.95;29.75;;;;;;;9.46;100.00;100879.81;5032741;28;20237;-77
2022/10/13 04:39:46;;;;;;;54.38;29.88;;;;;;;9.49;100.00;100879.69;5032553;28;20650;-76
2022/10/13 04:42:13;;;;;;;85.15;48.65;;;;;;;9.44;100.00;100869.09;5041513;28;20196;-77
2022/10/13 04:44:39;;;;;;;80.50;47.70;;;;;;;9.38;100.00;100872.88;5042230;28;20206;-77
2022/10/13 04:47:06;;;;;;;54.13;31.20;;;;;;;9.32;100.00;100875.75;5041670;28;20346;-77
2022/10/13 04:49:32;;;;;;;67.30;32.05;;;;;;;9.32;100.00;100873.06;5039855;28;20575;-77
2022/10/13 04:51:59;;;;;;;41.40;24.08;;;;;;;9.36;100.00;100876.53;5039155;28;20213;-77
2022/10/13 04:54:26;;;;;;;39.58;24.23;;;;;;;9.36;100.00;100874.75;5039461;28;20212;-77
2022/10/13 04:56:53;;;;;;;39.88;27.45;;;;;;;9.42;100.00;100867.41;5038522;28;20725;-77
2022/10/13 04:59:20;;;;;;;65.15;33.33;;;;;;;9.39;100.00;100860.31;5038286;28;20206;-77
2022/10/13 05:01:46;;;;;;;38.92;24.40;;;;;;;9.39;100.00;100863.00;5039087;28;20611;-77
2022/10/13 05:04:13;;;;;;;37.40;23.80;;;;;;;9.36;100.00;100842.47;5038976;28;20197;-77
2022/10/13 05:06:41;;;;;;;41.58;23.38;;;;;;;9.38;100.00;100845.09;5038236;28;20232;-77
2022/10/13 05:09:14;;;;;;;40.78;24.83;;;;;;;9.37;100.00;100849.59;5038737;28;20577;-77
2022/10/13 05:11:42;;;;;;;37.50;23.48;;;;;;;9.42;100.00;100849.44;5038290;28;20219;-77
2022/10/13 05:14:08;;;;;;;40.28;25.05;;;;;;;9.48;100.00;100848.38;5038818;28;20209;-76
2022/10/13 05:16:35;;;;;;;42.60;25.05;;;;;;;9.59;100.00;100843.53;5038889;28;20760;-77
2022/10/13 05:19:02;;;;;;;56.97;31.40;;;;;;;9.53;100.00;100832.97;5041444;28;20212;-77
2022/10/13 05:21:29;;;;;;;45.83;26.60;;;;;;;9.56;100.00;100833.72;5041409;28;20225;-78
2022/10/13 05:23:58;;;;;;;44.05;24.90;;;;;;;9.55;100.00;100828.41;5040524;28;20212;-77
2022/10/13 05:26:27;;;;;;;39.88;25.33;;;;;;;9.52;100.00;100817.75;5040330;28;20235;-77
2022/10/13 05:28:55;;;;;;;37.92;20.90;;;;;;;9.46;100.00;100821.53;5041575;28;20665;-76
2022/10/13 05:31:24;;;;;;;45.25;22.88;;;;;;;9.43;100.00;100826.13;5040262;28;20215;-77
2022/10/13 05:33:52;;;;;;;39.67;24.75;;;;;;;9.56;100.00;100832.84;5040369;28;20205;-76
2022/10/13 05:36:21;;;;;;;44.28;27.10;;;;;;;9.62;100.00;100818.31;5037544;28;20245;-77
2022/10/13 05:38:51;;;;;;;44.17;22.80;;;;;;;9.48;100.00;100826.88;5041378;28;20212;-79
2022/10/13 05:41:18;;;;;;;38.15;21.17;;;;;;;9.50;100.00;100816.94;5040095;28;20233;-77
2022/10/13 05:43:45;;;;;;;85.82;26.00;;;;;;;9.46;100.00;100821.53;5039829;28;20198;-79
2022/10/13 05:46:13;;;;;;;39.53;19.65;;;;;;;9.39;100.00;100820.88;5038067;28;20583;-76
2022/10/13 05:48:39;;;;;;;46.67;21.30;;;;;;;9.23;100.00;100810.69;5037714;28;20248;-76
2022/10/13 05:51:10;;;;;;;53.72;22.52;;;;;;;9.36;100.00;100801.25;5044608;28;20197;-79
2022/10/13 05:53:40;;;;;;;58.75;23.33;;;;;;;9.47;100.00;100804.47;5055015;28;20185;-77
2022/10/13 05:56:12;;;;;;;69.15;23.67;;;;;;;9.34;100.00;100792.41;5047618;28;20583;-78
2022/10/13 05:58:42;;;;;;;88.63;25.38;;;;;;;9.43;100.00;100788.50;5040691;28;20199;-77
2022/10/13 06:01:15;;;;;;;63.08;22.77;;;;;;;9.46;100.00;100791.09;5036684;28;20313;-77
2022/10/13 06:03:43;;;;;;;60.03;25.10;;;;;;;9.50;100.00;100792.75;5038408;28;20216;-78
2022/10/13 06:06:10;;;;;;;63.20;24.23;;;;;;;9.48;100.00;100787.41;5037268;28;20780;-76
2022/10/13 06:08:38;;;;;;;42.47;22.50;;;;;;;9.64;100.00;100786.88;5035872;28;20581;-76
2022/10/13 06:11:05;;;;;;;29.30;19.70;;;;;;;9.67;100.00;100790.31;5035735;28;20209;-77
2022/10/13 06:13:32;;;;;;;30.10;19.65;;;;;;;9.68;100.00;100792.09;5034496;28;20642;-78
2022/10/13 06:15:59;;;;;;;46.10;21.63;;;;;;;9.70;100.00;100797.41;5034654;28;20678;-77
2022/10/13 06:18:27;;;;;;;48.25;33.40;;;;;;;9.75;100.00;100796.31;5035308;28;20203;-77
2022/10/13 06:20:53;;;;;;;45.85;31.65;;;;;;;9.81;100.00;100796.09;5034499;28;20706;-77
2022/10/13 06:23:20;;;;;;;33.03;22.83;;;;;;;9.79;100.00;100808.72;5034597;28;20205;-77
2022/10/13 06:25:47;;;;;;;29.50;21.27;;;;;;;9.77;100.00;100815.97;5035733;28;20205;-76
2022/10/13 06:28:14;;;;;;;23.85;18.40;;;;;;;9.85;100.00;100809.44;5035321;28;20201;-77
2022/10/13 06:30:41;;;;;;;29.77;21.80;;;;;;;9.76;100.00;100824.09;5038474;28;20194;-77
2022/10/13 06:33:08;;;;;;;26.98;18.85;;;;;;;9.73;100.00;100824.22;5035001;28;20201;-76
2022/10/13 06:35:36;;;;;;;24.90;18.65;;;;;;;9.84;100.00;100822.03;5034994;28;20236;-77
2022/10/13 06:38:03;;;;;;;25.73;17.98;;;;;;;9.99;100.00;100817.88;5037231;28;20317;-77
2022/10/13 06:40:29;;;;;;;25.83;17.67;;;;;;;9.98;100.00;100818.81;5038108;28;20315;-76
2022/10/13 06:42:56;;;;;;;24.70;18.98;;;;;;;10.13;100.00;100820.97;5038274;28;20208;-76
2022/10/13 06:45:22;;;;;;;25.85;18.95;;;;;;;10.11;100.00;100817.44;5035205;28;20209;-76
2022/10/13 06:47:49;;;;;;;26.80;18.40;;;;;;;10.09;100.00;100822.00;5014550;28;20596;-77
2022/10/13 06:50:15;;;;;;;28.45;19.42;;;;;;;10.14;100.00;100830.78;5032207;28;20209;-77
2022/10/13 06:52:43;;;;;;;38.80;27.45;;;;;;;10.38;100.00;100836.25;5032068;28;20541;-77
2022/10/13 06:55:10;;;;;;;42.25;27.05;;;;;;;10.46;100.00;100830.56;5032214;28;20206;-77
2022/10/13 06:57:37;;;;;;;43.42;26.65;;;;;;;10.49;100.00;100836.72;5042237;28;20208;-77
2022/10/13 07:00:06;;;;;;;33.92;21.50;;;;;;;10.52;100.00;100841.09;5047717;28;20201;-77
2022/10/13 07:02:32;;;;;;;36.90;21.20;;;;;;;10.62;100.00;100840.66;5034521;28;20210;-76
2022/10/13 07:04:59;;;;;;;34.08;21.52;;;;;;;10.73;100.00;100848.34;5034844;28;20672;-76
2022/10/13 07:07:26;;;;;;;36.25;21.50;;;;;;;10.73;100.00;100844.78;5033405;28;20611;-76
2022/10/13 07:09:54;;;;;;;32.78;21.05;;;;;;;10.69;100.00;100843.13;5034649;28;20281;-76
2022/10/13 07:12:21;;;;;;;34.10;20.17;;;;;;;10.66;100.00;100854.03;5034289;28;20202;-75
2022/10/13 07:14:47;;;;;;;48.58;22.67;;;;;;;10.84;100.00;100856.88;5034241;28;20206;-78
2022/10/13 07:17:14;;;;;;;38.92;23.65;;;;;;;10.73;100.00;100853.72;5033500;28;20595;-76
2022/10/13 07:19:40;;;;;;;39.05;23.65;;;;;;;10.83;100.00;100847.06;5032898;28;20206;-75
2022/10/13 07:22:07;;;;;;;35.60;21.33;;;;;;;11.05;100.00;100838.97;5033728;28;20226;-77
2022/10/13 07:24:33;;;;;;;37.35;22.02;;;;;;;11.26;100.00;100852.50;5036206;28;20202;-78
2022/10/13 07:27:01;;;;;;;40.22;23.27;;;;;;;11.31;100.00;100842.44;5032797;28;20218;-77
2022/10/13 07:29:28;;;;;;;37.25;22.02;;;;;;;11.38;100.00;100841.25;5033112;28;20246;-77
2022/10/13 07:31:54;;;;;;;35.15;23.13;;;;;;;11.47;100.00;100830.06;5034500;28;20202;-76
2022/10/13 07:34:21;;;;;;;34.20;20.80;;;;;;;11.59;100.00;100822.38;5034053;28;20202;-76
2022/10/13 07:36:48;;;;;;;33.90;20.90;;;;;;;11.69;100.00;100813.84;5035164;28;20502;-75
2022/10/13 07:39:14;;;;;;;29.73;20.92;;;;;;;11.75;100.00;100814.50;5015745;28;20687;-76
2022/10/13 07:41:41;;;;;;;34.50;21.23;;;;;;;11.91;100.00;100825.53;5032806;28;20222;-77
2022/10/13 07:44:08;;;;;;;31.75;21.55;;;;;;;11.89;100.00;100822.91;5033279;28;20209;-76
2022/10/13 07:46:35;;;;;;;36.35;21.30;;;;;;;11.94;100.00;100811.91;5032814;28;20224;-77
2022/10/13 07:49:01;;;;;;;35.78;22.15;;;;;;;11.83;100.00;100817.75;5032304;28;20198;-76
2022/10/13 07:51:28;;;;;;;34.45;21.40;;;;;;;11.73;100.00;100809.16;5032693;28;20900;-76
2022/10/13 07:53:55;;;;;;;34.40;22.15;;;;;;;11.58;100.00;100812.56;5033499;28;20209;-76
2022/10/13 07:56:21;;;;;;;39.58;23.25;;;;;;;11.69;100.00;100827.34;5032834;28;20675;-75
2022/10/13 07:58:48;;;;;;;34.25;21.80;;;;;;;11.55;100.00;100836.94;5033024;28;20205;-77
2022/10/13 08:01:16;;;;;;;40.80;22.63;;;;;;;11.53;100.00;100833.44;5033802;28;20233;-77
2022/10/13 08:03:44;;;;;;;41.70;29.60;;;;;;;11.54;100.00;100830.69;5034535;28;20202;-77
2022/10/13 08:06:11;;;;;;;46.72;31.98;;;;;;;11.63;100.00;100838.38;5035067;28;20229;-77
2022/10/13 08:08:39;;;;;;;36.30;24.55;;;;;;;11.98;100.00;100829.72;5034051;28;20583;-75
2022/10/13 08:11:08;;;;;;;33.05;22.42;;;;;;;12.23;100.00;100819.59;5034069;28;20236;-77
2022/10/13 08:13:35;;;;;;;32.50;22.83;;;;;;;12.31;100.00;100820.09;5033612;28;20270;-76
2022/10/13 08:16:02;;;;;;;30.15;22.35;;;;;;;12.29;100.00;100818.41;5033640;28;20672;-77
2022/10/13 08:18:30;;;;;;;34.63;22.92;;;;;;;12.51;100.00;100810.19;5037009;28;20540;-76
2022/10/13 08:21:00;;;;;;;33.42;23.40;;;;;;;12.73;100.00;100816.34;5038057;28;20719;-77
2022/10/13 08:23:27;;;;;;;32.80;23.27;;;;;;;12.79;100.00;100807.06;5037357;28;20216;-78
2022/10/13 08:25:53;;;;;;;32.97;22.73;;;;;;;12.78;100.00;100812.56;5040144;28;20201;-77
2022/10/13 08:28:22;;;;;;;34.67;23.58;;;;;;;12.55;100.00;100819.91;5050602;28;20675;-76
2022/10/13 08:30:49;;;;;;;36.75;23.58;;;;;;;12.72;100.00;100809.16;5035131;28;20580;-77
2022/10/13 08:33:16;;;;;;;33.20;21.10;;;;;;;12.73;100.00;100810.94;5035371;28;20259;-76
2022/10/13 08:35:43;;;;;;;35.17;23.08;;;;;;;12.56;100.00;100812.69;5034964;28;20209;-76
2022/10/13 08:38:10;;;;;;;31.65;23.15;;;;;;;12.48;100.00;100810.31;5034059;28;20214;-76
2022/10/13 08:40:37;;;;;;;31.63;22.50;;;;;;;12.48;100.00;100815.72;5034010;28;20202;-76
2022/10/13 08:43:06;;;;;;;36.35;23.23;;;;;;;12.61;100.00;100810.63;5034056;28;20206;-77
2022/10/13 08:45:33;;;;;;;38.13;23.77;;;;;;;12.61;100.00;100798.00;5034046;28;20699;-76
2022/10/13 08:48:03;;;;;;;35.15;24.02;;;;;;;12.71;100.00;100779.53;5034058;28;20723;-76
2022/10/13 08:50:34;;;;;;;38.97;23.70;;;;;;;12.75;100.00;100781.13;5033650;28;20186;-77
2022/10/13 08:53:07;;;;;;;32.47;23.13;;;;;;;12.99;100.00;100789.88;5033748;28;20721;-76
2022/10/13 08:55:39;;;;;;;32.70;23.83;;;;;;;12.97;100.00;100789.06;5035482;28;20658;-78
2022/10/13 08:58:12;;;;;;;30.50;22.35;;;;;;;13.05;100.00;100796.81;5020102;28;20222;-77
2022/10/13 09:00:38;;;;;;;33.38;24.08;;;;;;;13.03;100.00;100791.47;5036406;28;20194;-75
2022/10/13 09:03:20;;;;;;;32.50;23.50;;;;;;;12.98;100.00;100793.53;5039508;28;20229;-76
2022/10/13 09:05:56;;;;;;;32.15;23.35;;;;;;;12.92;100.00;100810.03;5035415;28;20186;-77
2022/10/13 09:08:28;;;;;;;35.25;23.13;;;;;;;12.77;100.00;100808.06;5034172;28;20193;-77
2022/10/13 09:10:54;;;;;;;39.38;25.50;;;;;;;12.76;100.00;100806.34;5034383;28;20581;-76
2022/10/13 09:13:21;;;;;;;35.50;26.23;;;;;;;12.57;100.00;100804.50;5036089;28;20237;-76
2022/10/13 09:15:50;;;;;;;43.58;25.15;;;;;;;12.76;100.00;100815.31;5036615;28;20694;-77
2022/10/13 09:18:16;;;;;;;34.42;23.38;;;;;;;12.91;100.00;100813.69;5035858;28;20206;-76
2022/10/13 09:20:43;;;;;;;32.63;24.60;;;;;;;12.87;100.00;100806.69;5033915;28;20210;-76
2022/10/13 09:23:19;;;;;;;33.90;24.92;;;;;;;12.94;100.00;100811.72;5038946;28;20214;-77
2022/10/13 09:25:49;;;;;;;33.08;22.48;;;;;;;12.94;100.00;100805.44;5041130;28;20297;-75
2022/10/13 09:28:19;;;;;;;32.42;24.35;;;;;;;12.73;100.00;100819.03;5034654;28;20186;-75
2022/10/13 09:30:47;;;;;;;37.10;25.02;;;;;;;12.75;100.00;100813.53;5036130;28;20194;-75
2022/10/13 09:33:23;;;;;;;31.73;23.80;;;;;;;12.87;100.00;100820.22;5036243;28;20288;-76
2022/10/13 09:36:06;;;;;;;32.65;23.30;;;;;;;12.96;100.00;100821.56;5035457;28;20182;-75
2022/10/13 09:38:34;;;;;;;39.65;26.13;;;;;;;12.86;100.00;100831.97;5035975;28;20236;-77
2022/10/13 09:41:04;;;;;;;38.35;24.80;;;;;;;12.64;100.00;100827.59;5033967;28;20295;-76
2022/10/13 09:43:33;;;;;;;39.97;26.02;;;;;;;12.56;100.00;100837.00;5033659;28;20188;-76
2022/10/13 09:46:02;;;;;;;43.03;27.45;;;;;;;12.48;100.00;100831.94;5032974;28;20607;-76
2022/10/13 09:48:31;;;;;;;44.13;24.98;;;;;;;12.47;100.00;100831.06;5050855;28;20278;-78
2022/10/13 09:50:58;;;;;;;45.28;27.50;;;;;;;12.50;100.00;100835.44;5047561;28;20193;-77
2022/10/13 09:53:31;;;;;;;43.83;27.98;;;;;;;12.48;100.00;100824.75;5015526;28;20236;-76
2022/10/13 09:56:15;;;;;;;42.28;27.50;;;;;;;12.45;100.00;100826.69;5032440;28;20273;-77
2022/10/13 09:58:46;;;;;;;48.70;32.17;;;;;;;12.53;100.00;100811.00;5033297;28;20232;-77
2022/10/13 10:01:21;;;;;;;50.28;27.67;;;;;;;12.55;100.00;100830.72;5033129;28;20566;-76
2022/10/13 10:03:48;;;;;;;51.03;28.17;;;;;;;12.63;100.00;100831.22;5033294;28;20215;-76
2022/10/13 10:06:16;;;;;;;43.20;27.38;;;;;;;12.48;100.00;100829.22;5033245;28;20601;-76
2022/10/13 10:08:50;;;;;;;41.70;26.85;;;;;;;12.49;100.00;100831.00;5033551;28;20216;-77
2022/10/13 10:11:22;;;;;;;48.35;27.40;;;;;;;12.41;100.00;100820.53;5034235;28;20215;-76
2022/10/13 10:13:51;;;;;;;45.67;30.35;;;;;;;12.54;100.00;100833.50;5034893;28;20284;-75
2022/10/13 10:16:28;;;;;;;51.72;31.80;;;;;;;12.60;100.00;100836.78;5034522;28;20284;-76
2022/10/13 10:19:03;;;;;;;46.22;27.65;;;;;;;12.30;100.00;100822.84;5034504;28;20197;-77
2022/10/13 10:21:36;;;;;;;52.80;30.33;;;;;;;12.44;100.00;100824.94;5034826;28;20236;-79
2022/10/13 10:24:13;;;;;;;51.95;31.48;;;;;;;12.47;100.00;100827.50;5034052;28;20198;-75
2022/10/13 10:26:52;;;;;;;48.00;28.90;;;;;;;12.66;100.00;100822.09;5035142;28;20217;-77
2022/10/13 10:29:36;;;;;;;46.65;28.58;;;;;;;12.60;100.00;100823.28;5034614;28;20285;-77
2022/10/13 10:32:14;;;;;;;51.55;30.73;;;;;;;12.58;100.00;100811.66;5035556;28;20182;-77
2022/10/13 10:34:49;;;;;;;47.70;29.80;;;;;;;12.82;100.00;100808.72;5034321;28;20213;-76
2022/10/13 10:37:20;;;;;;;48.75;29.02;;;;;;;13.27;100.00;100788.47;5075549;22;20230;-75
2022/10/13 10:39:49;;;;;;;48.55;29.00;;;;;;;13.12;100.00;100801.84;5113732;28;20206;-74
2022/10/13 10:42:41;;;;;;;45.53;29.00;;;;;;;13.05;100.00;100786.88;5115524;28;20265;-75
2022/10/13 10:45:16;;;;;;;40.03;27.38;;;;;;;13.24;100.00;100788.66;5116316;28;20189;-75
2022/10/13 10:47:46;;;;;;;39.25;26.42;;;;;;;13.25;100.00;100779.56;5106666;28;20247;-74
2022/10/13 10:50:16;;;;;;;42.42;26.65;;;;;;;13.23;100.00;100774.25;5093544;28;20249;-75
2022/10/13 10:52:53;;;;;;;43.35;27.88;;;;;;;13.34;100.00;100769.22;5093491;28;20294;-74
2022/10/13 10:55:26;;;;;;;39.92;26.65;;;;;;;13.75;100.00;100768.03;5095568;28;20282;-73
2022/10/13 10:58:05;;;;;;;37.95;24.60;;;;;;;13.91;100.00;100749.13;5097470;28;20315;-74
2022/10/13 11:00:37;;;;;;;39.47;25.75;;;;;;;13.86;100.00;100743.97;5094278;28;20203;-74
2022/10/13 11:03:13;;;;;;;42.95;28.25;;;;;;;14.05;100.00;100735.72;5094756;28;20224;-75
2022/10/13 11:06:21;;;;;;;41.65;27.58;;;;;;;14.93;100.00;100712.69;5093555;28;20675;-74
2022/10/13 11:08:49;;;;;;;39.00;26.05;;;;;;;15.80;100.00;100701.13;5031399;28;20312;-75
2022/10/13 11:11:35;;;;;;;35.72;24.55;;;;;;;15.69;100.00;100702.75;5031506;28;20554;-76
2022/10/13 11:14:25;;;;;;;36.60;24.60;;;;;;;15.30;100.00;100701.50;5031079;28;20716;-77
2022/10/13 11:17:17;;;;;;;35.22;24.02;;;;;;;15.49;100.00;100691.28;5031177;28;20631;-74